createdAt,value
2018-09-25T00:01:08.596Z,99.99
2018-09-25T00:02:17.226Z,99.99
2018-09-25T00:03:25.874Z,99.99
2018-09-25T00:04:34.512Z,99.99
2018-09-25T00:05:43.155Z,99.99
2018-09-25T00:06:51.784Z,99.99
2018-09-25T00:08:00.431Z,99.99
2018-09-25T00:09:09.067Z,99.99
2018-09-25T00:10:18.104Z,99.99
2018-09-25T00:11:26.722Z,99.99
2018-09-25T00:12:35.364Z,99.99
2018-09-25T00:13:44.282Z,99.99
2018-09-25T00:14:52.925Z,99.99
2018-09-25T00:16:02.093Z,99.99
2018-09-25T00:17:10.990Z,99.99
2018-09-25T00:18:19.640Z,99.99
2018-09-25T00:19:28.276Z,99.99
2018-09-25T00:20:36.922Z,99.99
2018-09-25T00:21:45.550Z,99.99
2018-09-25T00:22:54.461Z,99.99
2018-09-25T00:24:03.094Z,99.99
2018-09-25T00:25:11.741Z,99.99
2018-09-25T00:26:20.366Z,99.99
2018-09-25T00:27:30.016Z,99.99
2018-09-25T00:28:38.653Z,99.99
2018-09-25T00:29:47.299Z,99.99
2018-09-25T00:30:55.936Z,99.99
2018-09-25T00:32:04.832Z,99.99
2018-09-25T00:33:13.472Z,99.99
2018-09-25T00:34:22.105Z,99.99
2018-09-25T00:35:30.752Z,99.99
2018-09-25T00:36:39.385Z,99.99
2018-09-25T00:37:48.028Z,99.99
2018-09-25T00:38:56.657Z,99.99
2018-09-25T00:40:05.320Z,99.99
2018-09-25T00:41:13.954Z,99.99
2018-09-25T00:42:22.599Z,99.99
2018-09-25T00:43:31.225Z,99.99
2018-09-25T00:44:39.873Z,99.99
2018-09-25T00:45:48.509Z,99.99
2018-09-25T00:46:57.161Z,99.99
2018-09-25T00:48:05.778Z,99.99
2018-09-25T00:49:14.418Z,99.99
2018-09-25T00:50:23.061Z,99.99
2018-09-25T00:51:31.705Z,99.99
2018-09-25T00:52:40.667Z,99.99
2018-09-25T00:53:49.296Z,99.99
2018-09-25T00:54:57.941Z,99.99
2018-09-25T00:56:06.832Z,99.99
2018-09-25T00:57:15.478Z,99.99
2018-09-25T00:58:24.114Z,99.99
2018-09-25T00:59:32.747Z,99.99
2018-09-25T01:00:41.399Z,99.99
2018-09-25T01:01:50.285Z,99.99
2018-09-25T01:02:58.935Z,99.99
2018-09-25T01:04:07.842Z,99.99
2018-09-25T01:05:16.488Z,99.99
2018-09-25T01:06:25.644Z,99.99
2018-09-25T01:07:34.287Z,99.99
2018-09-25T01:08:42.931Z,99.99
2018-09-25T01:09:51.571Z,99.99
2018-09-25T01:11:00.217Z,99.99
2018-09-25T01:12:08.843Z,99.99
2018-09-25T01:13:17.494Z,99.99
2018-09-25T01:14:26.125Z,99.99
2018-09-25T01:15:35.043Z,99.99
2018-09-25T01:16:43.935Z,99.99
2018-09-25T01:17:52.577Z,99.99
2018-09-25T01:19:01.494Z,99.99
2018-09-25T01:20:10.122Z,99.99
2018-09-25T01:21:18.752Z,99.99
2018-09-25T01:22:27.390Z,99.99
2018-09-25T01:23:36.027Z,99.99
2018-09-25T01:24:44.676Z,99.99
2018-09-25T01:25:53.311Z,99.99
2018-09-25T01:27:01.944Z,99.99
2018-09-25T01:28:10.581Z,99.99
2018-09-25T01:29:19.215Z,99.99
2018-09-25T01:30:27.861Z,99.99
2018-09-25T01:31:36.497Z,99.99
2018-09-25T01:32:45.137Z,99.99
2018-09-25T01:33:53.768Z,99.99
2018-09-25T01:35:02.416Z,99.99
2018-09-25T01:36:11.050Z,99.99
2018-09-25T01:37:19.696Z,99.99
2018-09-25T01:38:28.329Z,99.99
2018-09-25T01:39:36.976Z,99.99
2018-09-25T01:40:45.614Z,99.99
2018-09-25T01:41:54.255Z,99.99
2018-09-25T01:43:02.883Z,99.99
2018-09-25T01:44:11.531Z,99.99
2018-09-25T01:45:20.173Z,99.99
2018-09-25T01:46:28.809Z,99.99
2018-09-25T01:47:37.450Z,99.99
2018-09-25T01:48:46.079Z,99.99
2018-09-25T01:49:54.992Z,99.99
2018-09-25T01:51:03.619Z,99.99
2018-09-25T01:52:12.270Z,99.99
2018-09-25T01:53:20.899Z,99.99
2018-09-25T01:54:29.537Z,99.99
2018-09-25T01:55:38.173Z,99.99
2018-09-25T01:56:46.818Z,99.99
2018-09-25T01:57:55.451Z,99.99
2018-09-25T01:59:04.352Z,99.99
2018-09-25T02:00:12.989Z,99.99
2018-09-25T02:01:21.629Z,99.99
2018-09-25T02:02:30.264Z,99.99
2018-09-25T02:03:38.904Z,99.99
2018-09-25T02:04:47.806Z,99.99
2018-09-25T02:05:56.714Z,99.99
2018-09-25T02:07:05.357Z,99.99
2018-09-25T02:08:13.991Z,99.99
2018-09-25T02:09:22.629Z,99.99
2018-09-25T02:10:31.267Z,99.99
2018-09-25T02:11:39.907Z,99.99
2018-09-25T02:12:48.543Z,99.99
2018-09-25T02:13:57.180Z,99.99
2018-09-25T02:15:06.141Z,99.99
2018-09-25T02:16:14.782Z,99.99
2018-09-25T02:17:23.417Z,99.99
2018-09-25T02:18:32.055Z,99.99
2018-09-25T02:19:40.956Z,99.99
2018-09-25T02:20:49.596Z,99.99
2018-09-25T02:21:58.235Z,99.99
2018-09-25T02:23:07.136Z,99.99
2018-09-25T02:24:15.776Z,99.99
2018-09-25T02:25:24.406Z,99.99
2018-09-25T02:26:33.042Z,99.99
2018-09-25T02:27:41.684Z,99.99
2018-09-25T02:28:50.329Z,99.99
2018-09-25T02:29:58.972Z,99.99
2018-09-25T02:31:07.603Z,99.99
2018-09-25T02:32:16.243Z,99.99
2018-09-25T02:33:24.886Z,99.99
2018-09-25T02:34:33.520Z,99.99
2018-09-25T02:35:42.160Z,99.99
2018-09-25T02:36:51.330Z,99.99
2018-09-25T02:37:59.977Z,99.99
2018-09-25T02:39:08.618Z,99.99
2018-09-25T02:40:17.789Z,99.99
2018-09-25T02:41:26.423Z,99.99
2018-09-25T02:42:35.587Z,99.99
2018-09-25T02:43:44.490Z,99.99
2018-09-25T02:44:53.395Z,99.99
2018-09-25T02:46:02.293Z,99.99
2018-09-25T02:47:11.456Z,99.99
2018-09-25T02:48:20.101Z,99.99
2018-09-25T02:49:29.265Z,99.99
2018-09-25T02:50:37.903Z,99.99
2018-09-25T02:51:46.536Z,99.99
2018-09-25T02:52:55.193Z,99.99
2018-09-25T02:54:03.827Z,99.99
2018-09-25T02:55:12.473Z,99.99
2018-09-25T02:56:21.102Z,99.99
2018-09-25T02:57:29.742Z,99.99
2018-09-25T02:58:38.651Z,99.99
2018-09-25T02:59:47.297Z,99.99
2018-09-25T03:00:56.208Z,99.99
2018-09-25T03:02:04.839Z,99.99
2018-09-25T03:03:14.023Z,99.99
2018-09-25T03:04:23.192Z,99.99
2018-09-25T03:05:31.840Z,99.99
2018-09-25T03:06:41.012Z,99.99
2018-09-25T03:07:49.660Z,99.99
2018-09-25T03:08:58.585Z,99.99
2018-09-25T03:10:07.496Z,99.99
2018-09-25T03:11:16.643Z,99.99
2018-09-25T03:12:25.545Z,99.99
2018-09-25T03:13:34.441Z,99.99
2018-09-25T03:14:43.089Z,99.99
2018-09-25T03:15:51.987Z,99.99
2018-09-25T03:17:00.627Z,99.99
2018-09-25T03:18:09.263Z,99.99
2018-09-25T03:19:17.953Z,99.99
2018-09-25T03:20:27.009Z,99.99
2018-09-25T03:21:36.466Z,99.99
2018-09-25T03:22:45.148Z,99.99
2018-09-25T03:23:53.758Z,99.99
2018-09-25T03:25:02.394Z,99.99
2018-09-25T03:26:11.018Z,99.99
2018-09-25T03:27:19.661Z,99.99
2018-09-25T03:28:28.289Z,99.99
2018-09-25T03:29:36.937Z,99.99
2018-09-25T03:30:45.577Z,99.99
2018-09-25T03:31:54.232Z,99.99
2018-09-25T03:33:02.871Z,99.99
2018-09-25T03:34:11.778Z,99.99
2018-09-25T03:35:20.420Z,99.99
2018-09-25T03:36:29.059Z,99.99
2018-09-25T03:37:37.703Z,99.99
2018-09-25T03:38:46.332Z,99.99
2018-09-25T03:39:54.973Z,99.99
2018-09-25T03:41:03.610Z,99.99
2018-09-25T03:42:12.518Z,99.99
2018-09-25T03:43:21.146Z,99.99
2018-09-25T03:44:30.327Z,99.99
2018-09-25T03:45:38.959Z,99.99
2018-09-25T03:46:47.606Z,99.99
2018-09-25T03:47:56.237Z,99.99
2018-09-25T03:49:05.150Z,99.99
2018-09-25T03:50:14.049Z,99.99
2018-09-25T03:51:22.692Z,99.99
2018-09-25T03:52:31.351Z,99.99
2018-09-25T03:53:40.253Z,99.99
2018-09-25T03:54:48.895Z,99.99
2018-09-25T03:55:58.057Z,99.99
2018-09-25T03:57:06.980Z,99.99
2018-09-25T03:58:15.880Z,99.99
2018-09-25T03:59:24.547Z,99.99
2018-09-25T04:00:33.468Z,99.99
2018-09-25T04:01:42.109Z,99.99
2018-09-25T04:02:50.748Z,99.99
2018-09-25T04:03:59.383Z,99.99
2018-09-25T04:05:08.015Z,99.99
2018-09-25T04:06:17.040Z,99.99
2018-09-25T04:07:25.554Z,99.99
2018-09-25T04:08:34.198Z,99.99
2018-09-25T04:09:43.101Z,99.99
2018-09-25T04:10:51.742Z,99.99
2018-09-25T04:12:00.383Z,99.99
2018-09-25T04:13:09.028Z,99.99
2018-09-25T04:14:17.662Z,99.99
2018-09-25T04:15:26.292Z,99.99
2018-09-25T04:16:34.931Z,99.99
2018-09-25T04:17:43.843Z,99.99
2018-09-25T04:18:52.756Z,99.99
2018-09-25T04:20:01.668Z,99.99
2018-09-25T04:21:10.570Z,99.99
2018-09-25T04:22:19.474Z,99.99
2018-09-25T04:23:28.118Z,99.99
2018-09-25T04:24:36.751Z,99.99
2018-09-25T04:25:45.392Z,99.99
2018-09-25T04:26:54.036Z,99.99
2018-09-25T04:28:02.682Z,99.99
2018-09-25T04:29:11.323Z,99.99
2018-09-25T04:30:20.217Z,99.99
2018-09-25T04:31:28.852Z,99.99
2018-09-25T04:32:37.488Z,99.99
2018-09-25T04:33:46.131Z,99.99
2018-09-25T04:34:55.296Z,99.99
2018-09-25T04:36:04.220Z,99.99
2018-09-25T04:37:12.883Z,99.99
2018-09-25T04:38:21.860Z,99.99
2018-09-25T04:39:30.493Z,99.99
2018-09-25T04:40:39.131Z,99.99
2018-09-25T04:41:47.762Z,99.99
2018-09-25T04:42:56.677Z,99.99
2018-09-25T04:44:05.575Z,99.99
2018-09-25T04:45:14.216Z,99.99
2018-09-25T04:46:22.851Z,99.99
2018-09-25T04:47:31.750Z,99.99
2018-09-25T04:48:40.386Z,99.99
2018-09-25T04:49:49.027Z,99.99
2018-09-25T04:50:57.663Z,99.99
2018-09-25T04:52:06.311Z,99.99
2018-09-25T04:53:14.951Z,99.99
2018-09-25T04:54:23.591Z,99.99
2018-09-25T04:55:32.224Z,99.99
2018-09-25T04:56:40.867Z,99.99
2018-09-25T04:57:49.507Z,99.99
2018-09-25T04:58:58.138Z,99.99
2018-09-25T05:00:06.770Z,99.99
2018-09-25T05:01:15.414Z,99.99
2018-09-25T05:02:24.048Z,99.99
2018-09-25T05:03:32.689Z,99.99
2018-09-25T05:04:41.322Z,99.99
2018-09-25T05:05:49.962Z,99.99
2018-09-25T05:06:58.861Z,99.99
2018-09-25T05:08:07.501Z,99.99
2018-09-25T05:09:16.141Z,99.99
2018-09-25T05:10:24.774Z,99.99
2018-09-25T05:11:33.415Z,99.99
2018-09-25T05:12:42.054Z,99.99
2018-09-25T05:13:50.695Z,99.99
2018-09-25T05:14:59.851Z,99.99
2018-09-25T05:16:08.487Z,99.99
2018-09-25T05:17:17.384Z,99.99
2018-09-25T05:18:26.027Z,99.99
2018-09-25T05:19:34.928Z,99.99
2018-09-25T05:20:43.565Z,99.99
2018-09-25T05:21:52.197Z,99.99
2018-09-25T05:23:00.842Z,99.99
2018-09-25T05:24:09.477Z,99.99
2018-09-25T05:25:18.384Z,99.99
2018-09-25T05:26:27.285Z,99.99
2018-09-25T05:27:35.920Z,99.99
2018-09-25T05:28:44.824Z,99.99
2018-09-25T05:29:53.463Z,99.99
2018-09-25T05:31:02.096Z,99.99
2018-09-25T05:32:10.728Z,99.99
2018-09-25T05:33:19.372Z,99.99
2018-09-25T05:34:28.010Z,99.99
2018-09-25T05:35:36.645Z,99.99
2018-09-25T05:36:45.279Z,99.99
2018-09-25T05:37:53.920Z,99.99
2018-09-25T05:39:02.555Z,99.99
2018-09-25T05:40:11.196Z,99.99
2018-09-25T05:41:19.826Z,99.99
2018-09-25T05:42:28.464Z,99.99
2018-09-25T05:43:37.373Z,99.99
2018-09-25T05:44:46.014Z,99.99
2018-09-25T05:45:54.916Z,99.99
2018-09-25T05:47:03.546Z,99.99
2018-09-25T05:48:12.192Z,99.99
2018-09-25T05:49:20.823Z,99.99
2018-09-25T05:50:29.469Z,99.99
2018-09-25T05:51:38.098Z,99.99
2018-09-25T05:52:47.000Z,99.99
2018-09-25T05:53:55.636Z,99.99
2018-09-25T05:55:04.550Z,99.99
2018-09-25T05:56:13.178Z,99.99
2018-09-25T05:57:22.080Z,99.99
2018-09-25T05:58:30.992Z,99.99
2018-09-25T05:59:39.647Z,99.99
2018-09-25T06:00:48.319Z,99.99
2018-09-25T06:01:56.919Z,99.99
2018-09-25T06:03:05.550Z,99.99
2018-09-25T06:04:14.187Z,99.99
2018-09-25T06:05:23.095Z,99.99
2018-09-25T06:06:32.000Z,99.99
2018-09-25T06:07:40.910Z,99.99
2018-09-25T06:08:49.537Z,99.99
2018-09-25T06:09:58.182Z,99.99
2018-09-25T06:11:06.816Z,99.99
2018-09-25T06:12:15.458Z,99.99
2018-09-25T06:13:24.088Z,99.99
2018-09-25T06:14:32.807Z,99.99
2018-09-25T06:15:41.651Z,99.99
2018-09-25T06:16:51.131Z,99.99
2018-09-25T06:17:59.894Z,99.99
2018-09-25T06:19:08.533Z,99.99
2018-09-25T06:20:17.174Z,99.99
2018-09-25T06:21:25.812Z,99.99
2018-09-25T06:22:34.451Z,99.99
2018-09-25T06:23:43.077Z,99.99
2018-09-25T06:24:51.983Z,99.99
2018-09-25T06:26:00.613Z,99.99
2018-09-25T06:27:09.264Z,99.99
2018-09-25T06:28:17.887Z,99.99
2018-09-25T06:29:26.532Z,99.99
2018-09-25T06:30:35.160Z,99.99
2018-09-25T06:31:43.807Z,99.99
2018-09-25T06:32:52.439Z,99.99
2018-09-25T06:34:01.078Z,99.99
2018-09-25T06:35:09.999Z,99.99
2018-09-25T06:36:18.917Z,99.99
2018-09-25T06:37:27.549Z,99.99
2018-09-25T06:38:36.181Z,99.99
2018-09-25T06:39:44.819Z,99.99
2018-09-25T06:40:53.506Z,99.99
2018-09-25T06:42:02.644Z,99.99
2018-09-25T06:43:11.279Z,99.99
2018-09-25T06:44:19.923Z,99.99
2018-09-25T06:45:28.553Z,99.99
2018-09-25T06:46:37.197Z,99.99
2018-09-25T06:47:46.117Z,99.99
2018-09-25T06:48:54.759Z,99.99
2018-09-25T06:50:03.396Z,99.99
2018-09-25T06:51:12.326Z,99.99
2018-09-25T06:52:20.932Z,99.99
2018-09-25T06:53:29.571Z,99.99
2018-09-25T06:54:38.361Z,99.99
2018-09-25T06:55:47.183Z,99.99
2018-09-25T06:56:55.823Z,99.99
2018-09-25T06:58:04.459Z,99.99
2018-09-25T06:59:13.093Z,99.99
2018-09-25T07:00:21.735Z,99.99
2018-09-25T07:01:30.373Z,99.99
2018-09-25T07:02:39.010Z,99.99
2018-09-25T07:03:47.648Z,99.99
2018-09-25T07:04:56.550Z,99.99
2018-09-25T07:06:05.188Z,99.99
2018-09-25T07:07:13.824Z,99.99
2018-09-25T07:08:22.458Z,99.99
2018-09-25T07:09:31.106Z,99.99
2018-09-25T07:10:40.102Z,99.99
2018-09-25T07:11:48.710Z,99.99
2018-09-25T07:12:57.337Z,99.99
2018-09-25T07:14:05.980Z,99.99
2018-09-25T07:15:14.884Z,99.99
2018-09-25T07:16:23.793Z,99.99
2018-09-25T07:17:32.436Z,99.99
2018-09-25T07:18:41.063Z,99.99
2018-09-25T07:19:49.702Z,99.99
2018-09-25T07:20:58.341Z,99.99
2018-09-25T07:22:06.983Z,99.99
2018-09-25T07:23:15.881Z,99.99
2018-09-25T07:24:24.531Z,99.99
2018-09-25T07:25:33.162Z,99.99
2018-09-25T07:26:41.805Z,99.99
2018-09-25T07:27:50.439Z,99.99
2018-09-25T07:28:59.423Z,99.99
2018-09-25T07:30:08.204Z,99.99
2018-09-25T07:31:16.858Z,99.99
2018-09-25T07:32:25.549Z,99.99
2018-09-25T07:33:34.554Z,99.99
2018-09-25T07:34:43.191Z,99.99
2018-09-25T07:35:52.095Z,99.99
2018-09-25T07:37:00.736Z,99.99
2018-09-25T07:38:09.379Z,99.99
2018-09-25T07:39:18.553Z,99.99
2018-09-25T07:40:27.186Z,99.99
2018-09-25T07:41:35.833Z,99.99
2018-09-25T07:42:44.518Z,99.99
2018-09-25T07:43:54.033Z,99.99
2018-09-25T07:45:02.867Z,99.99
2018-09-25T07:46:11.971Z,99.99
2018-09-25T07:47:20.829Z,99.99
2018-09-25T07:48:29.471Z,99.99
2018-09-25T07:49:38.107Z,99.99
2018-09-25T07:50:46.748Z,99.99
2018-09-25T07:51:55.660Z,99.99
2018-09-25T07:53:04.560Z,99.99
2018-09-25T07:54:13.201Z,99.99
2018-09-25T07:55:21.833Z,99.99
2018-09-25T07:56:30.475Z,99.99
2018-09-25T07:57:39.380Z,99.99
2018-09-25T07:58:48.293Z,99.99
2018-09-25T07:59:56.924Z,99.99
2018-09-25T08:01:06.099Z,99.99
2018-09-25T08:02:15.009Z,99.99
2018-09-25T08:03:23.664Z,99.99
2018-09-25T08:04:32.282Z,99.99
2018-09-25T08:05:40.925Z,99.99
2018-09-25T08:06:49.563Z,99.99
2018-09-25T08:07:58.209Z,99.99
2018-09-25T08:09:06.897Z,99.99
2018-09-25T08:10:15.484Z,99.99
2018-09-25T08:11:24.122Z,99.99
2018-09-25T08:12:32.759Z,99.99
2018-09-25T08:13:41.408Z,99.99
2018-09-25T08:14:50.564Z,99.99
2018-09-25T08:15:59.212Z,99.99
2018-09-25T08:17:08.101Z,99.99
2018-09-25T08:18:16.751Z,99.99
2018-09-25T08:19:25.386Z,99.99
2018-09-25T08:20:34.040Z,99.99
2018-09-25T08:21:42.666Z,99.99
2018-09-25T08:22:51.313Z,99.99
2018-09-25T08:23:59.950Z,99.99
2018-09-25T08:25:08.595Z,99.99
2018-09-25T08:26:17.488Z,99.99
2018-09-25T08:27:26.514Z,99.99
2018-09-25T08:28:35.159Z,99.99
2018-09-25T08:29:43.865Z,99.99
2018-09-25T08:30:52.797Z,99.99
2018-09-25T08:32:01.430Z,99.99
2018-09-25T08:33:10.076Z,99.99
2018-09-25T08:34:18.710Z,99.99
2018-09-25T08:35:27.358Z,99.99
2018-09-25T08:36:35.998Z,99.99
2018-09-25T08:37:44.636Z,99.99
2018-09-25T08:38:53.389Z,99.99
2018-09-25T08:40:01.929Z,99.99
2018-09-25T08:41:10.565Z,99.99
2018-09-25T08:42:19.523Z,99.99
2018-09-25T08:43:28.508Z,99.99
2018-09-25T08:44:37.422Z,99.99
2018-09-25T08:45:46.477Z,99.99
2018-09-25T08:46:55.223Z,99.99
2018-09-25T08:48:03.946Z,99.99
2018-09-25T08:49:12.692Z,99.99
2018-09-25T08:50:21.617Z,99.99
2018-09-25T08:51:30.264Z,99.99
2018-09-25T08:52:38.903Z,99.99
2018-09-25T08:53:47.556Z,99.99
2018-09-25T08:54:56.446Z,99.99
2018-09-25T08:56:05.095Z,99.99
2018-09-25T08:57:13.727Z,99.99
2018-09-25T08:58:22.378Z,99.99
2018-09-25T08:59:31.008Z,99.99
2018-09-25T09:00:39.915Z,99.99
2018-09-25T09:01:48.829Z,99.99
2018-09-25T09:02:57.743Z,99.99
2018-09-25T09:04:06.387Z,99.99
2018-09-25T09:05:15.028Z,99.99
2018-09-25T09:06:23.666Z,99.99
2018-09-25T09:07:32.577Z,99.99
2018-09-25T09:08:41.230Z,99.99
2018-09-25T09:09:49.868Z,99.99
2018-09-25T09:10:58.518Z,99.99
2018-09-25T09:12:07.151Z,99.99
2018-09-25T09:13:15.804Z,99.99
2018-09-25T09:14:24.698Z,99.99
2018-09-25T09:15:33.350Z,99.99
2018-09-25T09:16:41.983Z,99.99
2018-09-25T09:17:50.634Z,99.99
2018-09-25T09:18:59.275Z,99.99
2018-09-25T09:20:08.189Z,99.99
2018-09-25T09:21:17.433Z,99.99
2018-09-25T09:22:26.344Z,99.99
2018-09-25T09:23:35.132Z,99.99
2018-09-25T09:24:44.401Z,99.99
2018-09-25T09:25:53.397Z,99.99
2018-09-25T09:27:02.493Z,99.99
2018-09-25T09:28:11.296Z,99.99
2018-09-25T09:29:20.238Z,99.99
2018-09-25T09:30:29.140Z,99.99
2018-09-25T09:31:38.057Z,99.99
2018-09-25T09:32:46.705Z,99.99
2018-09-25T09:33:55.374Z,99.99
2018-09-25T09:35:04.258Z,99.99
2018-09-25T09:36:12.895Z,99.99
2018-09-25T09:37:21.543Z,99.99
2018-09-25T09:38:30.181Z,99.99
2018-09-25T09:39:38.832Z,99.99
2018-09-25T09:40:47.732Z,99.99
2018-09-25T09:41:56.740Z,99.99
2018-09-25T09:43:05.861Z,99.99
2018-09-25T09:44:14.499Z,99.99
2018-09-25T09:45:23.158Z,99.99
2018-09-25T09:46:31.798Z,99.99
2018-09-25T09:47:40.438Z,99.99
2018-09-25T09:48:49.075Z,99.99
2018-09-25T09:49:57.988Z,99.99
2018-09-25T09:51:06.628Z,99.99
2018-09-25T09:52:15.275Z,99.99
2018-09-25T09:53:23.908Z,99.99
2018-09-25T09:54:32.555Z,99.99
2018-09-25T09:55:41.455Z,99.99
2018-09-25T09:56:50.107Z,99.99
2018-09-25T09:57:58.736Z,99.99
2018-09-25T09:59:07.379Z,99.99
2018-09-25T10:00:16.019Z,99.99
2018-09-25T10:01:24.938Z,99.99
2018-09-25T10:02:33.582Z,99.99
2018-09-25T10:03:42.219Z,99.99
2018-09-25T10:04:50.865Z,99.99
2018-09-25T10:05:59.505Z,99.99
2018-09-25T10:07:08.218Z,99.99
2018-09-25T10:08:16.794Z,99.99
2018-09-25T10:09:25.435Z,99.99
2018-09-25T10:10:34.338Z,99.99
2018-09-25T10:11:42.985Z,99.99
2018-09-25T10:12:51.621Z,99.99
2018-09-25T10:14:00.532Z,99.99
2018-09-25T10:15:09.172Z,99.99
2018-09-25T10:16:17.821Z,99.99
2018-09-25T10:17:26.461Z,99.99
2018-09-25T10:18:35.105Z,99.99
2018-09-25T10:19:44.006Z,99.99
2018-09-25T10:20:52.647Z,99.99
2018-09-25T10:22:01.296Z,99.99
2018-09-25T10:23:10.262Z,99.99
2018-09-25T10:24:18.903Z,99.99
2018-09-25T10:25:27.542Z,99.99
2018-09-25T10:26:36.190Z,99.99
2018-09-25T10:27:44.891Z,99.99
2018-09-25T10:28:53.533Z,99.23
2018-09-25T10:30:02.173Z,98.94
2018-09-25T10:31:10.819Z,97.89
2018-09-25T10:32:19.461Z,97.89
2018-09-25T10:33:28.107Z,99.99
2018-09-25T10:34:36.747Z,99.99
2018-09-25T10:35:45.391Z,99.99
2018-09-25T10:36:54.034Z,99.99
2018-09-25T10:38:02.685Z,99.99
2018-09-25T10:39:11.595Z,99.99
2018-09-25T10:40:20.232Z,99.99
2018-09-25T10:41:28.874Z,99.99
2018-09-25T10:42:37.516Z,99.99
2018-09-25T10:43:46.162Z,99.99
2018-09-25T10:44:54.798Z,99.99
2018-09-25T10:46:03.445Z,99.99
2018-09-25T10:47:12.084Z,99.99
2018-09-25T10:48:20.736Z,99.99
2018-09-25T10:49:29.371Z,99.99
2018-09-25T10:50:38.016Z,99.99
2018-09-25T10:51:46.657Z,99.99
2018-09-25T10:52:55.308Z,99.99
2018-09-25T10:54:03.954Z,99.99
2018-09-25T10:55:12.857Z,99.99
2018-09-25T10:56:21.934Z,99.99
2018-09-25T10:57:30.474Z,99.99
2018-09-25T10:58:39.388Z,99.99
2018-09-25T10:59:48.032Z,99.99
2018-09-25T11:00:56.679Z,99.99
2018-09-25T11:02:05.311Z,99.99
2018-09-25T11:03:14.151Z,99.99
2018-09-25T11:04:23.045Z,99.99
2018-09-25T11:05:31.959Z,99.99
2018-09-25T11:06:40.867Z,99.99
2018-09-25T11:07:49.524Z,99.99
2018-09-25T11:08:58.161Z,99.99
2018-09-25T11:10:06.869Z,99.99
2018-09-25T11:11:15.795Z,99.99
2018-09-25T11:12:24.440Z,99.99
2018-09-25T11:13:33.089Z,99.99
2018-09-25T11:14:41.741Z,99.99
2018-09-25T11:15:50.389Z,99.99
2018-09-25T11:16:59.026Z,99.99
2018-09-25T11:18:07.675Z,99.99
2018-09-25T11:19:16.317Z,99.99
2018-09-25T11:20:24.968Z,99.99
2018-09-25T11:21:33.609Z,99.99
2018-09-25T11:22:42.530Z,99.99
2018-09-25T11:23:51.168Z,99.99
2018-09-25T11:24:59.823Z,99.99
2018-09-25T11:26:08.457Z,99.99
2018-09-25T11:27:17.100Z,99.99
2018-09-25T11:28:25.742Z,99.99
2018-09-25T11:29:34.401Z,99.99
2018-09-25T11:30:43.303Z,99.47
2018-09-25T11:31:51.942Z,99.85
2018-09-25T11:33:00.585Z,98.71
2018-09-25T11:34:09.231Z,97.85
2018-09-25T11:35:19.212Z,97.61
2018-09-25T11:36:28.175Z,97.52
2018-09-25T11:37:37.093Z,97.23
2018-09-25T11:38:45.729Z,96.37
2018-09-25T11:39:54.385Z,96.37
2018-09-25T11:41:03.140Z,96.17
2018-09-25T11:42:11.675Z,96.56
2018-09-25T11:43:20.362Z,97.23
2018-09-25T11:44:29.033Z,98.37
2018-09-25T11:45:37.677Z,98.85
2018-09-25T11:46:46.412Z,99.52
2018-09-25T11:47:54.962Z,99.71
2018-09-25T11:49:03.604Z,99.99
2018-09-25T11:50:12.250Z,98.03
2018-09-25T11:51:20.896Z,96.32
2018-09-25T11:52:29.807Z,95.51
2018-09-25T11:53:38.453Z,96.56
2018-09-25T11:54:47.095Z,96.56
2018-09-25T11:55:55.738Z,94.93
2018-09-25T11:57:04.389Z,94.74
2018-09-25T11:58:13.023Z,95.03
2018-09-25T11:59:21.668Z,95.12
2018-09-25T12:00:30.310Z,96.56
2018-09-25T12:01:38.959Z,98.66
2018-09-25T12:02:47.597Z,98.85
2018-09-25T12:03:56.250Z,98.08
2018-09-25T12:05:04.890Z,98.85
2018-09-25T12:06:13.540Z,99.14
2018-09-25T12:07:22.180Z,98.9
2018-09-25T12:08:30.825Z,98.8
2018-09-25T12:09:39.467Z,99.76
2018-09-25T12:10:48.108Z,99.99
2018-09-25T12:11:56.755Z,99.99
2018-09-25T12:13:05.401Z,99.99
2018-09-25T12:14:14.307Z,99.99
2018-09-25T12:15:23.214Z,99.99
2018-09-25T12:16:32.129Z,99.99
2018-09-25T12:17:40.772Z,99.99
2018-09-25T12:18:49.418Z,99.99
2018-09-25T12:19:58.065Z,99.99
2018-09-25T12:21:06.711Z,99.99
2018-09-25T12:22:15.353Z,99.99
2018-09-25T12:23:24.054Z,99.99
2018-09-25T12:24:33.048Z,99.99
2018-09-25T12:25:41.689Z,99.99
2018-09-25T12:26:50.332Z,99.99
2018-09-25T12:27:58.977Z,99.99
2018-09-25T12:29:07.624Z,99.99
2018-09-25T12:30:16.268Z,99.99
2018-09-25T12:31:24.914Z,99.99
2018-09-25T12:32:33.612Z,99.99
2018-09-25T12:33:42.265Z,99.99
2018-09-25T12:34:51.835Z,99.99
2018-09-25T12:36:00.477Z,99.99
2018-09-25T12:37:09.120Z,99.99
2018-09-25T12:38:17.769Z,99.99
2018-09-25T12:39:26.413Z,99.99
2018-09-25T12:40:35.329Z,99.99
2018-09-25T12:41:44.233Z,99.99
2018-09-25T12:42:52.874Z,99.99
2018-09-25T12:44:01.518Z,99.99
2018-09-25T12:45:10.160Z,99.99
2018-09-25T12:46:18.804Z,99.99
2018-09-25T12:47:27.451Z,99.99
2018-09-25T12:48:36.099Z,99.99
2018-09-25T12:49:44.742Z,99.99
2018-09-25T12:50:53.391Z,99.99
2018-09-25T12:52:02.039Z,99.99
2018-09-25T12:53:10.681Z,99.99
2018-09-25T12:54:19.325Z,99.99
2018-09-25T12:55:27.968Z,99.99
2018-09-25T12:56:36.618Z,99.99
2018-09-25T12:57:45.257Z,99.99
2018-09-25T12:58:53.905Z,99.99
2018-09-25T13:00:02.817Z,99.99
2018-09-25T13:01:11.466Z,99.99
2018-09-25T13:02:20.112Z,99.99
2018-09-25T13:03:28.752Z,99.99
2018-09-25T13:04:37.662Z,99.99
2018-09-25T13:05:46.301Z,99.99
2018-09-25T13:06:54.950Z,99.99
2018-09-25T13:08:03.596Z,99.99
2018-09-25T13:09:12.498Z,99.99
2018-09-25T13:10:21.399Z,99.99
2018-09-25T13:11:30.851Z,99.99
2018-09-25T13:12:39.493Z,99.99
2018-09-25T13:13:48.401Z,99.99
2018-09-25T13:14:57.040Z,99.99
2018-09-25T13:16:06.103Z,99.99
2018-09-25T13:17:14.599Z,99.99
2018-09-25T13:18:23.511Z,99.99
2018-09-25T13:19:32.155Z,99.99
2018-09-25T13:20:42.091Z,99.99
2018-09-25T13:21:50.735Z,99.99
2018-09-25T13:22:59.382Z,99.99
2018-09-25T13:24:08.291Z,99.99
2018-09-25T13:25:16.939Z,99.99
2018-09-25T13:26:25.856Z,99.99
2018-09-25T13:27:34.761Z,99.99
2018-09-25T13:28:43.678Z,99.99
2018-09-25T13:29:56.202Z,99.99
2018-09-25T13:31:09.361Z,99.99
2018-09-25T13:32:22.447Z,98.99
2018-09-25T13:33:34.694Z,99.99
2018-09-25T13:34:46.720Z,99.99
2018-09-25T13:36:00.192Z,99.99
2018-09-25T13:37:13.735Z,99.99
2018-09-25T13:38:26.048Z,99.99
2018-09-25T13:39:39.467Z,99.28
2018-09-25T13:40:50.733Z,99.99
2018-09-25T13:42:02.578Z,99.99
2018-09-25T13:43:14.214Z,99.99
2018-09-25T13:44:28.113Z,96.7
2018-09-25T13:45:40.105Z,95.65
2018-09-25T13:46:54.382Z,94.79
2018-09-25T13:48:06.950Z,93.36
2018-09-25T13:49:19.975Z,93.36
2018-09-25T13:50:32.260Z,94.65
2018-09-25T13:51:44.948Z,97.13
2018-09-25T13:52:59.214Z,97.8
2018-09-25T13:54:11.971Z,98.38
2018-09-25T13:55:23.622Z,99.9
2018-09-25T13:56:35.874Z,99.99
2018-09-25T13:57:47.082Z,99.99
2018-09-25T13:59:01.099Z,99.99
2018-09-25T14:00:14.903Z,99.99
2018-09-25T14:01:26.646Z,99.99
2018-09-25T14:02:39.596Z,99.99
2018-09-25T14:03:51.360Z,99.99
2018-09-25T14:05:04.242Z,99.99
2018-09-25T14:06:16.890Z,99.99
2018-09-25T14:07:28.561Z,99.99
2018-09-25T14:08:40.949Z,99.99
2018-09-25T14:09:53.377Z,99.99
2018-09-25T14:11:02.018Z,99.99
2018-09-25T14:12:10.672Z,99.99
2018-09-25T14:13:19.307Z,99.99
2018-09-25T14:14:27.953Z,99.99
2018-09-25T14:15:36.858Z,99.99
2018-09-25T14:16:45.511Z,99.99
2018-09-25T14:17:54.152Z,99.99
2018-09-25T14:19:02.791Z,99.99
2018-09-25T14:20:11.441Z,99.99
2018-09-25T14:21:20.098Z,99.99
2018-09-25T14:22:28.739Z,99.99
2018-09-25T14:23:38.392Z,99.99
2018-09-25T14:24:47.098Z,99.99
2018-09-25T14:25:55.677Z,99.99
2018-09-25T14:27:04.597Z,99.99
2018-09-25T14:28:13.236Z,99.99
2018-09-25T14:29:21.889Z,99.99
2018-09-25T14:30:30.523Z,99.99
2018-09-25T14:31:39.176Z,99.99
2018-09-25T14:32:47.818Z,99.99
2018-09-25T14:33:56.462Z,99.28
2018-09-25T14:35:05.102Z,97.85
2018-09-25T14:36:13.747Z,97.94
2018-09-25T14:37:22.658Z,97.94
2018-09-25T14:38:31.304Z,97.33
2018-09-25T14:39:39.950Z,94.89
2018-09-25T14:40:48.583Z,94.84
2018-09-25T14:41:57.281Z,94.84
2018-09-25T14:43:06.156Z,94.65
2018-09-25T14:44:14.803Z,94.65
2018-09-25T14:45:23.438Z,93.98
2018-09-25T14:46:32.088Z,93.5
2018-09-25T14:47:40.756Z,93.98